sensor_id;sensor_type;location;lat;lon;timestamp;P1;durP1;ratioP1;P2;durP2;ratioP2
22502;SDS011;11418;48.118;9.992;2022-09-09T00:02:52;3.28;;;1.90;;
22502;SDS011;11418;48.118;9.992;2022-09-09T00:07:10;3.35;;;2.05;;
22502;SDS011;11418;48.118;9.992;2022-09-09T00:11:14;2.53;;;1.67;;
22502;SDS011;11418;48.118;9.992;2022-09-09T00:15:26;3.35;;;2.00;;
22502;SDS011;11418;48.118;9.992;2022-09-09T00:19:49;3.13;;;2.08;;
22502;SDS011;11418;48.118;9.992;2022-09-09T00:27:59;5.75;;;2.33;;
22502;SDS011;11418;48.118;9.992;2022-09-09T00:32:00;2.60;;;2.25;;
22502;SDS011;11418;48.118;9.992;2022-09-09T00:36:15;4.90;;;2.35;;
22502;SDS011;11418;48.118;9.992;2022-09-09T00:40:32;4.13;;;2.50;;
22502;SDS011;11418;48.118;9.992;2022-09-09T00:44:37;3.97;;;2.50;;
22502;SDS011;11418;48.118;9.992;2022-09-09T00:53:02;3.50;;;2.80;;
22502;SDS011;11418;48.118;9.992;2022-09-09T01:01:28;3.15;;;2.53;;
22502;SDS011;11418;48.118;9.992;2022-09-09T01:14:00;3.85;;;3.28;;
22502;SDS011;11418;48.118;9.992;2022-09-09T01:18:15;6.05;;;2.80;;
22502;SDS011;11418;48.118;9.992;2022-09-09T01:26:37;5.32;;;3.22;;
22502;SDS011;11418;48.118;9.992;2022-09-09T01:30:41;3.45;;;3.08;;
22502;SDS011;11418;48.118;9.992;2022-09-09T01:34:42;4.85;;;3.17;;
22502;SDS011;11418;48.118;9.992;2022-09-09T01:38:42;3.40;;;2.92;;
22502;SDS011;11418;48.118;9.992;2022-09-09T01:42:43;5.45;;;3.17;;
22502;SDS011;11418;48.118;9.992;2022-09-09T01:46:44;5.57;;;3.05;;
22502;SDS011;11418;48.118;9.992;2022-09-09T01:50:44;6.22;;;3.10;;
22502;SDS011;11418;48.118;9.992;2022-09-09T01:54:45;5.75;;;3.35;;
22502;SDS011;11418;48.118;9.992;2022-09-09T02:03:20;4.45;;;3.05;;
22502;SDS011;11418;48.118;9.992;2022-09-09T02:11:41;5.72;;;3.17;;
22502;SDS011;11418;48.118;9.992;2022-09-09T02:19:52;3.35;;;2.83;;
22502;SDS011;11418;48.118;9.992;2022-09-09T02:23:59;7.53;;;3.05;;
22502;SDS011;11418;48.118;9.992;2022-09-09T02:28:05;3.20;;;2.72;;
22502;SDS011;11418;48.118;9.992;2022-09-09T02:32:12;7.53;;;3.53;;
22502;SDS011;11418;48.118;9.992;2022-09-09T02:36:23;5.38;;;3.17;;
22502;SDS011;11418;48.118;9.992;2022-09-09T02:40:26;5.32;;;3.08;;
22502;SDS011;11418;48.118;9.992;2022-09-09T02:44:27;4.53;;;3.08;;
22502;SDS011;11418;48.118;9.992;2022-09-09T02:48:30;5.70;;;3.38;;
22502;SDS011;11418;48.118;9.992;2022-09-09T02:52:40;5.70;;;3.42;;
22502;SDS011;11418;48.118;9.992;2022-09-09T02:57:08;6.38;;;3.30;;
22502;SDS011;11418;48.118;9.992;2022-09-09T03:01:17;5.25;;;3.33;;
22502;SDS011;11418;48.118;9.992;2022-09-09T03:05:17;4.85;;;3.08;;
22502;SDS011;11418;48.118;9.992;2022-09-09T03:09:18;6.10;;;3.10;;
22502;SDS011;11418;48.118;9.992;2022-09-09T03:13:19;4.15;;;3.10;;
22502;SDS011;11418;48.118;9.992;2022-09-09T03:17:19;6.78;;;4.03;;
22502;SDS011;11418;48.118;9.992;2022-09-09T03:21:20;6.05;;;3.60;;
22502;SDS011;11418;48.118;9.992;2022-09-09T03:25:21;4.85;;;3.13;;
22502;SDS011;11418;48.118;9.992;2022-09-09T03:29:26;3.78;;;3.13;;
22502;SDS011;11418;48.118;9.992;2022-09-09T03:33:26;10.30;;;2.95;;
22502;SDS011;11418;48.118;9.992;2022-09-09T03:37:27;3.78;;;2.90;;
22502;SDS011;11418;48.118;9.992;2022-09-09T03:41:28;4.03;;;2.92;;
22502;SDS011;11418;48.118;9.992;2022-09-09T03:45:29;7.03;;;3.22;;
22502;SDS011;11418;48.118;9.992;2022-09-09T03:49:30;2.63;;;2.30;;
22502;SDS011;11418;48.118;9.992;2022-09-09T03:53:30;2.40;;;2.20;;
22502;SDS011;11418;48.118;9.992;2022-09-09T03:57:31;2.65;;;2.17;;
22502;SDS011;11418;48.118;9.992;2022-09-09T04:01:34;3.35;;;2.65;;
22502;SDS011;11418;48.118;9.992;2022-09-09T04:05:35;4.82;;;2.63;;
22502;SDS011;11418;48.118;9.992;2022-09-09T04:09:39;4.78;;;2.30;;
22502;SDS011;11418;48.118;9.992;2022-09-09T04:13:40;9.73;;;2.78;;
22502;SDS011;11418;48.118;9.992;2022-09-09T04:17:41;6.93;;;2.80;;
22502;SDS011;11418;48.118;9.992;2022-09-09T04:21:42;3.28;;;2.67;;
22502;SDS011;11418;48.118;9.992;2022-09-09T04:25:46;3.50;;;2.42;;
22502;SDS011;11418;48.118;9.992;2022-09-09T04:29:48;8.43;;;2.55;;
22502;SDS011;11418;48.118;9.992;2022-09-09T04:33:49;7.65;;;3.10;;
22502;SDS011;11418;48.118;9.992;2022-09-09T04:37:50;7.88;;;2.95;;
22502;SDS011;11418;48.118;9.992;2022-09-09T04:41:50;6.20;;;3.20;;
22502;SDS011;11418;48.118;9.992;2022-09-09T04:45:51;6.80;;;3.53;;
22502;SDS011;11418;48.118;9.992;2022-09-09T04:49:52;5.63;;;3.53;;
22502;SDS011;11418;48.118;9.992;2022-09-09T04:53:54;6.40;;;3.33;;
22502;SDS011;11418;48.118;9.992;2022-09-09T04:57:54;3.83;;;3.15;;
22502;SDS011;11418;48.118;9.992;2022-09-09T05:01:55;5.53;;;3.50;;
22502;SDS011;11418;48.118;9.992;2022-09-09T05:06:02;4.10;;;3.03;;
22502;SDS011;11418;48.118;9.992;2022-09-09T05:10:04;4.40;;;3.20;;
22502;SDS011;11418;48.118;9.992;2022-09-09T05:14:05;6.82;;;3.47;;
22502;SDS011;11418;48.118;9.992;2022-09-09T05:18:07;3.75;;;3.17;;
22502;SDS011;11418;48.118;9.992;2022-09-09T05:22:07;11.23;;;3.55;;
22502;SDS011;11418;48.118;9.992;2022-09-09T05:26:09;4.28;;;2.95;;
22502;SDS011;11418;48.118;9.992;2022-09-09T05:30:13;4.90;;;2.97;;
22502;SDS011;11418;48.118;9.992;2022-09-09T05:34:14;6.18;;;2.90;;
22502;SDS011;11418;48.118;9.992;2022-09-09T05:38:14;4.50;;;3.15;;
22502;SDS011;11418;48.118;9.992;2022-09-09T05:42:15;4.72;;;3.08;;
22502;SDS011;11418;48.118;9.992;2022-09-09T05:46:19;5.72;;;3.00;;
22502;SDS011;11418;48.118;9.992;2022-09-09T05:50:21;6.43;;;2.70;;
22502;SDS011;11418;48.118;9.992;2022-09-09T05:54:22;3.05;;;2.58;;
22502;SDS011;11418;48.118;9.992;2022-09-09T05:58:23;4.82;;;2.70;;
22502;SDS011;11418;48.118;9.992;2022-09-09T06:02:24;4.50;;;2.55;;
22502;SDS011;11418;48.118;9.992;2022-09-09T06:06:26;6.35;;;3.13;;
22502;SDS011;11418;48.118;9.992;2022-09-09T06:10:30;3.65;;;2.60;;
22502;SDS011;11418;48.118;9.992;2022-09-09T06:14:30;3.97;;;2.40;;
22502;SDS011;11418;48.118;9.992;2022-09-09T06:18:31;5.40;;;2.50;;
22502;SDS011;11418;48.118;9.992;2022-09-09T06:22:31;3.15;;;2.00;;
22502;SDS011;11418;48.118;9.992;2022-09-09T06:26:33;4.35;;;2.00;;
22502;SDS011;11418;48.118;9.992;2022-09-09T06:30:35;5.80;;;2.08;;
22502;SDS011;11418;48.118;9.992;2022-09-09T06:34:36;3.15;;;1.60;;
22502;SDS011;11418;48.118;9.992;2022-09-09T06:38:36;2.53;;;1.10;;
22502;SDS011;11418;48.118;9.992;2022-09-09T06:42:37;2.63;;;1.27;;
22502;SDS011;11418;48.118;9.992;2022-09-09T06:46:38;3.42;;;1.20;;
22502;SDS011;11418;48.118;9.992;2022-09-09T06:50:39;2.60;;;1.08;;
22502;SDS011;11418;48.118;9.992;2022-09-09T06:54:40;1.40;;;1.10;;
22502;SDS011;11418;48.118;9.992;2022-09-09T06:58:41;2.38;;;1.00;;
22502;SDS011;11418;48.118;9.992;2022-09-09T07:02:43;1.50;;;0.90;;
22502;SDS011;11418;48.118;9.992;2022-09-09T07:06:44;5.63;;;1.20;;
22502;SDS011;11418;48.118;9.992;2022-09-09T07:10:46;1.60;;;1.02;;
22502;SDS011;11418;48.118;9.992;2022-09-09T07:14:47;3.83;;;1.30;;
22502;SDS011;11418;48.118;9.992;2022-09-09T07:18:47;3.45;;;1.10;;
22502;SDS011;11418;48.118;9.992;2022-09-09T07:22:48;1.35;;;0.85;;
22502;SDS011;11418;48.118;9.992;2022-09-09T07:26:49;1.40;;;0.98;;
22502;SDS011;11418;48.118;9.992;2022-09-09T07:30:53;1.80;;;0.80;;
22502;SDS011;11418;48.118;9.992;2022-09-09T07:34:58;2.55;;;1.10;;
22502;SDS011;11418;48.118;9.992;2022-09-09T07:39:01;1.65;;;0.90;;
22502;SDS011;11418;48.118;9.992;2022-09-09T07:43:09;2.97;;;1.00;;
22502;SDS011;11418;48.118;9.992;2022-09-09T07:47:10;2.78;;;0.90;;
22502;SDS011;11418;48.118;9.992;2022-09-09T07:51:15;3.70;;;0.90;;
22502;SDS011;11418;48.118;9.992;2022-09-09T07:55:20;3.95;;;1.30;;
22502;SDS011;11418;48.118;9.992;2022-09-09T07:59:21;2.35;;;1.02;;
22502;SDS011;11418;48.118;9.992;2022-09-09T08:03:22;2.15;;;0.85;;
22502;SDS011;11418;48.118;9.992;2022-09-09T08:07:22;2.35;;;1.02;;
22502;SDS011;11418;48.118;9.992;2022-09-09T08:11:23;1.73;;;0.80;;
22502;SDS011;11418;48.118;9.992;2022-09-09T08:15:25;1.63;;;0.73;;
22502;SDS011;11418;48.118;9.992;2022-09-09T08:19:26;1.60;;;0.88;;
22502;SDS011;11418;48.118;9.992;2022-09-09T08:23:29;2.72;;;1.02;;
22502;SDS011;11418;48.118;9.992;2022-09-09T08:27:29;1.98;;;0.70;;
22502;SDS011;11418;48.118;9.992;2022-09-09T08:31:32;3.25;;;1.08;;
22502;SDS011;11418;48.118;9.992;2022-09-09T08:35:37;2.30;;;0.90;;
22502;SDS011;11418;48.118;9.992;2022-09-09T08:39:37;2.03;;;1.00;;
22502;SDS011;11418;48.118;9.992;2022-09-09T08:43:38;1.45;;;0.70;;
22502;SDS011;11418;48.118;9.992;2022-09-09T08:51:53;1.92;;;0.77;;
22502;SDS011;11418;48.118;9.992;2022-09-09T08:56:02;2.90;;;0.93;;
22502;SDS011;11418;48.118;9.992;2022-09-09T09:00:10;5.43;;;0.98;;
22502;SDS011;11418;48.118;9.992;2022-09-09T09:17:36;3.85;;;1.05;;
22502;SDS011;11418;48.118;9.992;2022-09-09T09:25:50;5.35;;;1.17;;
22502;SDS011;11418;48.118;9.992;2022-09-09T09:29:58;1.98;;;0.73;;
22502;SDS011;11418;48.118;9.992;2022-09-09T09:34:01;2.22;;;1.02;;
22502;SDS011;11418;48.118;9.992;2022-09-09T09:38:08;1.98;;;0.93;;
22502;SDS011;11418;48.118;9.992;2022-09-09T09:46:34;2.45;;;1.45;;
22502;SDS011;11418;48.118;9.992;2022-09-09T09:50:34;5.05;;;1.00;;
22502;SDS011;11418;48.118;9.992;2022-09-09T09:54:46;2.80;;;0.85;;
22502;SDS011;11418;48.118;9.992;2022-09-09T09:58:50;2.97;;;1.10;;
22502;SDS011;11418;48.118;9.992;2022-09-09T10:02:52;1.55;;;0.70;;
22502;SDS011;11418;48.118;9.992;2022-09-09T10:06:53;4.50;;;0.70;;
22502;SDS011;11418;48.118;9.992;2022-09-09T10:19:09;2.53;;;0.85;;
22502;SDS011;11418;48.118;9.992;2022-09-09T10:23:26;1.95;;;0.77;;
22502;SDS011;11418;48.118;9.992;2022-09-09T10:36:16;0.85;;;0.65;;
22502;SDS011;11418;48.118;9.992;2022-09-09T10:40:31;3.72;;;0.85;;
22502;SDS011;11418;48.118;9.992;2022-09-09T10:49:13;2.25;;;0.90;;
22502;SDS011;11418;48.118;9.992;2022-09-09T10:57:58;3.20;;;1.50;;
22502;SDS011;11418;48.118;9.992;2022-09-09T11:06:17;2.83;;;0.80;;
22502;SDS011;11418;48.118;9.992;2022-09-09T11:14:32;1.75;;;0.90;;
22502;SDS011;11418;48.118;9.992;2022-09-09T11:23:08;1.65;;;0.50;;
22502;SDS011;11418;48.118;9.992;2022-09-09T11:36:01;1.42;;;0.82;;
22502;SDS011;11418;48.118;9.992;2022-09-09T11:40:23;1.30;;;0.70;;
22502;SDS011;11418;48.118;9.992;2022-09-09T11:44:27;1.48;;;0.60;;
22502;SDS011;11418;48.118;9.992;2022-09-09T11:48:40;3.70;;;0.90;;
22502;SDS011;11418;48.118;9.992;2022-09-09T11:52:45;1.75;;;0.60;;
22502;SDS011;11418;48.118;9.992;2022-09-09T11:56:48;2.88;;;0.75;;
22502;SDS011;11418;48.118;9.992;2022-09-09T12:00:49;0.93;;;0.68;;
22502;SDS011;11418;48.118;9.992;2022-09-09T12:05:05;2.80;;;0.60;;
22502;SDS011;11418;48.118;9.992;2022-09-09T12:09:17;2.90;;;0.57;;
22502;SDS011;11418;48.118;9.992;2022-09-09T12:13:29;2.17;;;0.68;;
22502;SDS011;11418;48.118;9.992;2022-09-09T12:17:31;3.22;;;0.82;;
22502;SDS011;11418;48.118;9.992;2022-09-09T12:26:30;1.55;;;0.57;;
22502;SDS011;11418;48.118;9.992;2022-09-09T12:39:09;1.55;;;0.90;;
22502;SDS011;11418;48.118;9.992;2022-09-09T12:43:30;1.58;;;0.88;;
22502;SDS011;11418;48.118;9.992;2022-09-09T12:47:39;2.67;;;0.63;;
22502;SDS011;11418;48.118;9.992;2022-09-09T12:51:45;0.75;;;0.63;;
22502;SDS011;11418;48.118;9.992;2022-09-09T12:55:52;2.38;;;0.77;;
22502;SDS011;11418;48.118;9.992;2022-09-09T13:00:19;3.72;;;0.80;;
22502;SDS011;11418;48.118;9.992;2022-09-09T13:04:24;2.42;;;0.75;;
22502;SDS011;11418;48.118;9.992;2022-09-09T13:08:25;2.17;;;0.90;;
22502;SDS011;11418;48.118;9.992;2022-09-09T13:12:26;3.42;;;1.55;;
22502;SDS011;11418;48.118;9.992;2022-09-09T13:16:28;3.38;;;2.20;;
22502;SDS011;11418;48.118;9.992;2022-09-09T13:20:33;2.92;;;1.40;;
22502;SDS011;11418;48.118;9.992;2022-09-09T13:24:34;2.22;;;1.15;;
22502;SDS011;11418;48.118;9.992;2022-09-09T13:28:35;1.30;;;0.70;;
22502;SDS011;11418;48.118;9.992;2022-09-09T13:32:35;4.43;;;2.17;;
22502;SDS011;11418;48.118;9.992;2022-09-09T13:36:36;2.65;;;0.70;;
22502;SDS011;11418;48.118;9.992;2022-09-09T13:40:37;1.08;;;0.60;;
22502;SDS011;11418;48.118;9.992;2022-09-09T13:44:38;1.63;;;0.60;;
22502;SDS011;11418;48.118;9.992;2022-09-09T13:48:41;3.80;;;1.13;;
22502;SDS011;11418;48.118;9.992;2022-09-09T13:52:42;1.70;;;0.80;;
22502;SDS011;11418;48.118;9.992;2022-09-09T13:56:42;2.35;;;0.75;;
22502;SDS011;11418;48.118;9.992;2022-09-09T14:00:44;1.73;;;0.65;;
22502;SDS011;11418;48.118;9.992;2022-09-09T14:04:45;0.80;;;0.40;;
22502;SDS011;11418;48.118;9.992;2022-09-09T14:08:45;1.38;;;0.50;;
22502;SDS011;11418;48.118;9.992;2022-09-09T14:12:46;1.10;;;0.65;;
22502;SDS011;11418;48.118;9.992;2022-09-09T14:16:46;2.15;;;0.68;;
22502;SDS011;11418;48.118;9.992;2022-09-09T14:20:47;1.20;;;0.60;;
22502;SDS011;11418;48.118;9.992;2022-09-09T14:24:48;1.38;;;0.60;;
22502;SDS011;11418;48.118;9.992;2022-09-09T14:28:49;2.55;;;0.60;;
22502;SDS011;11418;48.118;9.992;2022-09-09T14:32:50;1.10;;;0.50;;
22502;SDS011;11418;48.118;9.992;2022-09-09T14:36:50;1.55;;;0.40;;
22502;SDS011;11418;48.118;9.992;2022-09-09T14:40:51;2.95;;;0.80;;
22502;SDS011;11418;48.118;9.992;2022-09-09T14:44:51;0.43;;;0.40;;
22502;SDS011;11418;48.118;9.992;2022-09-09T14:48:52;2.88;;;0.63;;
22502;SDS011;11418;48.118;9.992;2022-09-09T14:52:53;0.60;;;0.50;;
22502;SDS011;11418;48.118;9.992;2022-09-09T14:56:54;2.03;;;0.70;;
22502;SDS011;11418;48.118;9.992;2022-09-09T15:00:55;2.45;;;0.88;;
22502;SDS011;11418;48.118;9.992;2022-09-09T15:04:55;1.90;;;0.57;;
22502;SDS011;11418;48.118;9.992;2022-09-09T15:08:57;2.05;;;1.02;;
22502;SDS011;11418;48.118;9.992;2022-09-09T15:12:58;3.08;;;0.80;;
22502;SDS011;11418;48.118;9.992;2022-09-09T15:16:59;1.60;;;0.70;;
22502;SDS011;11418;48.118;9.992;2022-09-09T15:20:59;1.95;;;0.63;;
22502;SDS011;11418;48.118;9.992;2022-09-09T15:25:03;11.52;;;2.85;;
22502;SDS011;11418;48.118;9.992;2022-09-09T15:29:04;1.67;;;0.60;;
22502;SDS011;11418;48.118;9.992;2022-09-09T15:33:07;23.15;;;4.38;;
22502;SDS011;11418;48.118;9.992;2022-09-09T15:37:09;1.70;;;0.70;;
22502;SDS011;11418;48.118;9.992;2022-09-09T15:41:13;2.00;;;0.70;;
22502;SDS011;11418;48.118;9.992;2022-09-09T15:45:14;1.60;;;0.60;;
22502;SDS011;11418;48.118;9.992;2022-09-09T15:49:19;1.38;;;0.55;;
22502;SDS011;11418;48.118;9.992;2022-09-09T15:53:22;2.70;;;0.70;;
22502;SDS011;11418;48.118;9.992;2022-09-09T15:57:22;4.45;;;0.90;;
22502;SDS011;11418;48.118;9.992;2022-09-09T16:01:23;1.25;;;0.70;;
22502;SDS011;11418;48.118;9.992;2022-09-09T16:05:24;1.90;;;0.63;;
22502;SDS011;11418;48.118;9.992;2022-09-09T16:09:26;1.40;;;0.60;;
22502;SDS011;11418;48.118;9.992;2022-09-09T16:13:27;2.28;;;0.82;;
22502;SDS011;11418;48.118;9.992;2022-09-09T16:17:27;2.65;;;0.80;;
22502;SDS011;11418;48.118;9.992;2022-09-09T16:21:29;2.35;;;0.70;;
22502;SDS011;11418;48.118;9.992;2022-09-09T16:25:31;2.83;;;0.82;;
22502;SDS011;11418;48.118;9.992;2022-09-09T16:29:32;2.50;;;0.68;;
22502;SDS011;11418;48.118;9.992;2022-09-09T16:33:33;2.55;;;0.80;;
22502;SDS011;11418;48.118;9.992;2022-09-09T16:37:33;1.27;;;0.70;;
22502;SDS011;11418;48.118;9.992;2022-09-09T16:41:34;3.17;;;0.70;;
22502;SDS011;11418;48.118;9.992;2022-09-09T16:45:40;1.00;;;0.65;;
22502;SDS011;11418;48.118;9.992;2022-09-09T16:49:42;1.70;;;0.70;;
22502;SDS011;11418;48.118;9.992;2022-09-09T16:53:42;1.80;;;0.57;;
22502;SDS011;11418;48.118;9.992;2022-09-09T16:57:43;0.95;;;0.40;;
22502;SDS011;11418;48.118;9.992;2022-09-09T17:01:45;0.63;;;0.40;;
22502;SDS011;11418;48.118;9.992;2022-09-09T17:05:47;0.60;;;0.43;;
22502;SDS011;11418;48.118;9.992;2022-09-09T17:09:47;1.95;;;0.50;;
22502;SDS011;11418;48.118;9.992;2022-09-09T17:13:48;1.48;;;0.55;;
22502;SDS011;11418;48.118;9.992;2022-09-09T17:17:50;4.80;;;0.50;;
22502;SDS011;11418;48.118;9.992;2022-09-09T17:21:53;3.65;;;0.77;;
22502;SDS011;11418;48.118;9.992;2022-09-09T17:25:57;0.77;;;0.32;;
22502;SDS011;11418;48.118;9.992;2022-09-09T17:29:58;2.58;;;0.40;;
22502;SDS011;11418;48.118;9.992;2022-09-09T17:33:59;2.33;;;0.50;;
22502;SDS011;11418;48.118;9.992;2022-09-09T17:38:00;2.90;;;0.40;;
22502;SDS011;11418;48.118;9.992;2022-09-09T17:42:00;0.68;;;0.50;;
22502;SDS011;11418;48.118;9.992;2022-09-09T17:46:05;0.98;;;0.50;;
22502;SDS011;11418;48.118;9.992;2022-09-09T17:50:11;2.03;;;0.60;;
22502;SDS011;11418;48.118;9.992;2022-09-09T17:54:16;1.23;;;0.65;;
22502;SDS011;11418;48.118;9.992;2022-09-09T17:58:18;1.17;;;0.70;;
22502;SDS011;11418;48.118;9.992;2022-09-09T18:02:19;2.63;;;0.57;;
22502;SDS011;11418;48.118;9.992;2022-09-09T18:06:21;0.82;;;0.63;;
22502;SDS011;11418;48.118;9.992;2022-09-09T18:10:23;1.15;;;0.55;;
22502;SDS011;11418;48.118;9.992;2022-09-09T18:14:25;3.05;;;0.80;;
22502;SDS011;11418;48.118;9.992;2022-09-09T18:18:29;1.30;;;0.68;;
22502;SDS011;11418;48.118;9.992;2022-09-09T18:22:30;0.57;;;0.40;;
22502;SDS011;11418;48.118;9.992;2022-09-09T18:26:30;5.05;;;0.70;;
22502;SDS011;11418;48.118;9.992;2022-09-09T18:30:38;1.00;;;0.50;;
22502;SDS011;11418;48.118;9.992;2022-09-09T18:34:39;0.95;;;0.52;;
22502;SDS011;11418;48.118;9.992;2022-09-09T18:38:40;0.52;;;0.50;;
22502;SDS011;11418;48.118;9.992;2022-09-09T18:42:41;2.90;;;0.88;;
22502;SDS011;11418;48.118;9.992;2022-09-09T18:46:42;1.63;;;0.70;;
22502;SDS011;11418;48.118;9.992;2022-09-09T18:50:43;3.97;;;0.90;;
22502;SDS011;11418;48.118;9.992;2022-09-09T18:54:44;2.83;;;0.70;;
22502;SDS011;11418;48.118;9.992;2022-09-09T18:58:45;5.35;;;0.65;;
22502;SDS011;11418;48.118;9.992;2022-09-09T19:02:47;3.85;;;0.70;;
22502;SDS011;11418;48.118;9.992;2022-09-09T19:06:51;1.20;;;0.60;;
22502;SDS011;11418;48.118;9.992;2022-09-09T19:11:00;2.03;;;0.70;;
22502;SDS011;11418;48.118;9.992;2022-09-09T19:15:01;1.35;;;0.65;;
22502;SDS011;11418;48.118;9.992;2022-09-09T19:19:06;5.72;;;1.83;;
22502;SDS011;11418;48.118;9.992;2022-09-09T19:23:11;16.23;;;6.10;;
22502;SDS011;11418;48.118;9.992;2022-09-09T19:27:11;8.85;;;3.95;;
22502;SDS011;11418;48.118;9.992;2022-09-09T19:31:12;7.53;;;2.70;;
22502;SDS011;11418;48.118;9.992;2022-09-09T19:35:16;56.22;;;19.13;;
22502;SDS011;11418;48.118;9.992;2022-09-09T19:39:18;26.27;;;10.80;;
22502;SDS011;11418;48.118;9.992;2022-09-09T19:43:20;13.27;;;5.75;;
22502;SDS011;11418;48.118;9.992;2022-09-09T19:47:21;10.48;;;4.70;;
22502;SDS011;11418;48.118;9.992;2022-09-09T19:51:23;11.77;;;4.80;;
22502;SDS011;11418;48.118;9.992;2022-09-09T19:55:25;7.38;;;2.92;;
22502;SDS011;11418;48.118;9.992;2022-09-09T19:59:26;14.18;;;4.97;;
22502;SDS011;11418;48.118;9.992;2022-09-09T20:03:26;12.13;;;5.32;;
22502;SDS011;11418;48.118;9.992;2022-09-09T20:07:27;3.83;;;1.20;;
22502;SDS011;11418;48.118;9.992;2022-09-09T20:11:28;3.08;;;0.80;;
22502;SDS011;11418;48.118;9.992;2022-09-09T20:15:29;3.10;;;1.10;;
22502;SDS011;11418;48.118;9.992;2022-09-09T20:19:29;1.70;;;0.63;;
22502;SDS011;11418;48.118;9.992;2022-09-09T20:23:32;1.10;;;0.60;;
22502;SDS011;11418;48.118;9.992;2022-09-09T20:27:33;1.33;;;0.60;;
22502;SDS011;11418;48.118;9.992;2022-09-09T20:31:34;1.38;;;0.70;;
22502;SDS011;11418;48.118;9.992;2022-09-09T20:35:39;1.27;;;0.80;;
22502;SDS011;11418;48.118;9.992;2022-09-09T20:39:40;0.70;;;0.70;;
22502;SDS011;11418;48.118;9.992;2022-09-09T20:43:44;0.90;;;0.70;;
22502;SDS011;11418;48.118;9.992;2022-09-09T20:47:48;0.95;;;0.50;;
22502;SDS011;11418;48.118;9.992;2022-09-09T20:55:52;0.88;;;0.70;;
22502;SDS011;11418;48.118;9.992;2022-09-09T20:59:58;3.65;;;0.75;;
22502;SDS011;11418;48.118;9.992;2022-09-09T21:03:59;2.53;;;0.80;;
22502;SDS011;11418;48.118;9.992;2022-09-09T21:07:59;1.08;;;0.65;;
22502;SDS011;11418;48.118;9.992;2022-09-09T21:12:01;0.82;;;0.47;;
22502;SDS011;11418;48.118;9.992;2022-09-09T21:16:02;1.77;;;0.40;;
22502;SDS011;11418;48.118;9.992;2022-09-09T21:20:05;1.48;;;0.45;;
22502;SDS011;11418;48.118;9.992;2022-09-09T21:24:06;0.45;;;0.32;;
22502;SDS011;11418;48.118;9.992;2022-09-09T21:28:06;1.02;;;0.30;;
22502;SDS011;11418;48.118;9.992;2022-09-09T21:32:07;0.60;;;0.50;;
22502;SDS011;11418;48.118;9.992;2022-09-09T21:36:09;1.13;;;0.50;;
22502;SDS011;11418;48.118;9.992;2022-09-09T21:40:10;0.68;;;0.40;;
22502;SDS011;11418;48.118;9.992;2022-09-09T21:44:11;0.30;;;0.30;;
22502;SDS011;11418;48.118;9.992;2022-09-09T21:48:13;5.78;;;0.60;;
22502;SDS011;11418;48.118;9.992;2022-09-09T21:52:15;1.05;;;0.57;;
22502;SDS011;11418;48.118;9.992;2022-09-09T21:56:16;0.88;;;0.70;;
22502;SDS011;11418;48.118;9.992;2022-09-09T22:00:17;1.42;;;0.43;;
22502;SDS011;11418;48.118;9.992;2022-09-09T22:04:18;0.35;;;0.35;;
22502;SDS011;11418;48.118;9.992;2022-09-09T22:08:19;0.90;;;0.52;;
22502;SDS011;11418;48.118;9.992;2022-09-09T22:12:19;1.40;;;0.45;;
22502;SDS011;11418;48.118;9.992;2022-09-09T22:16:20;0.95;;;0.43;;
22502;SDS011;11418;48.118;9.992;2022-09-09T22:20:21;1.30;;;0.60;;
22502;SDS011;11418;48.118;9.992;2022-09-09T22:24:22;0.45;;;0.45;;
22502;SDS011;11418;48.118;9.992;2022-09-09T22:28:22;1.88;;;0.60;;
22502;SDS011;11418;48.118;9.992;2022-09-09T22:32:23;1.55;;;0.43;;
22502;SDS011;11418;48.118;9.992;2022-09-09T22:36:24;2.63;;;0.50;;
22502;SDS011;11418;48.118;9.992;2022-09-09T22:40:25;1.75;;;0.50;;
22502;SDS011;11418;48.118;9.992;2022-09-09T22:44:25;1.60;;;0.45;;
22502;SDS011;11418;48.118;9.992;2022-09-09T22:48:26;1.27;;;0.20;;
22502;SDS011;11418;48.118;9.992;2022-09-09T22:52:35;2.17;;;0.35;;
22502;SDS011;11418;48.118;9.992;2022-09-09T22:56:36;0.70;;;0.40;;
22502;SDS011;11418;48.118;9.992;2022-09-09T23:00:37;0.65;;;0.50;;
22502;SDS011;11418;48.118;9.992;2022-09-09T23:04:40;1.83;;;0.70;;
22502;SDS011;11418;48.118;9.992;2022-09-09T23:08:40;1.38;;;0.57;;
22502;SDS011;11418;48.118;9.992;2022-09-09T23:12:41;1.23;;;0.40;;
22502;SDS011;11418;48.118;9.992;2022-09-09T23:16:42;1.35;;;0.60;;
22502;SDS011;11418;48.118;9.992;2022-09-09T23:20:43;0.47;;;0.40;;
22502;SDS011;11418;48.118;9.992;2022-09-09T23:24:46;0.90;;;0.40;;
22502;SDS011;11418;48.118;9.992;2022-09-09T23:28:48;1.50;;;0.40;;
22502;SDS011;11418;48.118;9.992;2022-09-09T23:32:50;3.13;;;0.50;;
22502;SDS011;11418;48.118;9.992;2022-09-09T23:36:51;1.83;;;0.43;;
22502;SDS011;11418;48.118;9.992;2022-09-09T23:40:52;2.05;;;0.52;;
22502;SDS011;11418;48.118;9.992;2022-09-09T23:44:53;0.73;;;0.40;;
22502;SDS011;11418;48.118;9.992;2022-09-09T23:48:55;0.90;;;0.50;;
22502;SDS011;11418;48.118;9.992;2022-09-09T23:52:57;0.93;;;0.40;;
22502;SDS011;11418;48.118;9.992;2022-09-09T23:56:58;2.10;;;0.50;;
